sensor_id;sensor_type;location;lat;lon;timestamp;pressure;altitude;pressure_sealevel;temperature;humidity
12951;BME280;6540;50.858;7.232;2023-04-08T00:02:24;51743.59;;;-142.34;29.72
12951;BME280;6540;50.858;7.232;2023-04-08T00:04:50;51800.06;;;-142.34;29.85
12951;BME280;6540;50.858;7.232;2023-04-08T00:07:15;51794.03;;;-142.34;29.57
12951;BME280;6540;50.858;7.232;2023-04-08T00:09:41;51812.19;;;-142.34;29.81
12951;BME280;6540;50.858;7.232;2023-04-08T00:12:06;51818.22;;;-142.34;30.04
12951;BME280;6540;50.858;7.232;2023-04-08T00:14:31;51779.91;;;-142.34;29.80
12951;BME280;6540;50.858;7.232;2023-04-08T00:16:57;51806.13;;;-142.34;30.08
12951;BME280;6540;50.858;7.232;2023-04-08T00:19:22;51816.22;;;-142.34;30.52
12951;BME280;6540;50.858;7.232;2023-04-08T00:21:48;51794.03;;;-142.34;30.00
12951;BME280;6540;50.858;7.232;2023-04-08T00:24:13;51802.09;;;-142.34;29.89
12951;BME280;6540;50.858;7.232;2023-04-08T00:26:38;51800.06;;;-142.34;29.78
12951;BME280;6540;50.858;7.232;2023-04-08T00:29:04;51822.25;;;-142.34;29.79
12951;BME280;6540;50.858;7.232;2023-04-08T00:31:29;51812.19;;;-142.34;29.62
12951;BME280;6540;50.858;7.232;2023-04-08T00:33:55;51826.31;;;-142.34;30.02
12951;BME280;6540;50.858;7.232;2023-04-08T00:36:20;51777.88;;;-142.34;29.42
12951;BME280;6540;50.858;7.232;2023-04-08T00:38:46;51800.06;;;-142.34;29.53
12951;BME280;6540;50.858;7.232;2023-04-08T00:41:12;51798.06;;;-142.34;29.82
12951;BME280;6540;50.858;7.232;2023-04-08T00:43:37;51826.31;;;-142.34;29.72
12951;BME280;6540;50.858;7.232;2023-04-08T00:46:03;51794.03;;;-142.34;30.05
12951;BME280;6540;50.858;7.232;2023-04-08T00:48:29;51781.91;;;-142.34;29.78
12951;BME280;6540;50.858;7.232;2023-04-08T00:50:55;51816.22;;;-142.34;29.85
12951;BME280;6540;50.858;7.232;2023-04-08T00:53:21;51794.03;;;-142.34;30.93
12951;BME280;6540;50.858;7.232;2023-04-08T00:55:46;51818.22;;;-142.34;30.43
12951;BME280;6540;50.858;7.232;2023-04-08T00:58:12;51794.03;;;-142.34;30.24
12951;BME280;6540;50.858;7.232;2023-04-08T01:00:42;51838.41;;;-142.34;30.48
12951;BME280;6540;50.858;7.232;2023-04-08T01:03:16;51798.06;;;-142.34;30.12
12951;BME280;6540;50.858;7.232;2023-04-08T01:08:29;51810.16;;;-142.34;30.02
12951;BME280;6540;50.858;7.232;2023-04-08T01:11:00;51775.88;;;-142.34;29.82
12951;BME280;6540;50.858;7.232;2023-04-08T01:13:30;51820.25;;;-142.34;29.54
12951;BME280;6540;50.858;7.232;2023-04-08T01:15:58;51794.03;;;-142.34;29.68
12951;BME280;6540;50.858;7.232;2023-04-08T01:18:23;51781.91;;;-142.34;29.53
12951;BME280;6540;50.858;7.232;2023-04-08T01:20:51;51783.94;;;-142.34;29.60
12951;BME280;6540;50.858;7.232;2023-04-08T01:23:51;51814.19;;;-142.34;29.29
12951;BME280;6540;50.858;7.232;2023-04-08T01:26:22;51812.19;;;-142.34;29.80
12951;BME280;6540;50.858;7.232;2023-04-08T01:28:51;51796.03;;;-142.34;30.06
12951;BME280;6540;50.858;7.232;2023-04-08T01:31:18;51798.06;;;-142.34;30.30
12951;BME280;6540;50.858;7.232;2023-04-08T01:33:45;51814.19;;;-142.34;29.97
12951;BME280;6540;50.858;7.232;2023-04-08T01:36:11;51828.31;;;-142.34;29.86
12951;BME280;6540;50.858;7.232;2023-04-08T01:38:37;51832.34;;;-142.34;30.09
12951;BME280;6540;50.858;7.232;2023-04-08T01:41:03;51804.13;;;-142.34;30.55
12951;BME280;6540;50.858;7.232;2023-04-08T01:43:30;51765.78;;;-142.34;30.07
12951;BME280;6540;50.858;7.232;2023-04-08T01:45:58;51810.16;;;-142.34;29.92
12951;BME280;6540;50.858;7.232;2023-04-08T01:48:24;51822.25;;;-142.34;29.65
12951;BME280;6540;50.858;7.232;2023-04-08T01:50:51;51806.13;;;-142.34;30.07
12951;BME280;6540;50.858;7.232;2023-04-08T01:53:17;51798.06;;;-142.34;29.85
12951;BME280;6540;50.858;7.232;2023-04-08T01:55:44;51804.13;;;-142.34;30.14
12951;BME280;6540;50.858;7.232;2023-04-08T01:58:11;51763.75;;;-142.34;29.56
12951;BME280;6540;50.858;7.232;2023-04-08T02:00:41;51838.41;;;-142.34;29.76
12951;BME280;6540;50.858;7.232;2023-04-08T02:03:07;51818.22;;;-142.34;29.84
12951;BME280;6540;50.858;7.232;2023-04-08T02:05:36;51804.13;;;-142.34;30.10
12951;BME280;6540;50.858;7.232;2023-04-08T02:08:01;51860.59;;;-142.34;30.27
12951;BME280;6540;50.858;7.232;2023-04-08T02:10:26;51814.19;;;-142.34;29.60
12951;BME280;6540;50.858;7.232;2023-04-08T02:12:52;51830.34;;;-142.34;30.46
12951;BME280;6540;50.858;7.232;2023-04-08T02:15:17;51848.50;;;-142.34;29.55
12951;BME280;6540;50.858;7.232;2023-04-08T02:17:45;51785.94;;;-142.34;29.98
12951;BME280;6540;50.858;7.232;2023-04-08T02:20:18;51856.56;;;-142.34;30.99
12951;BME280;6540;50.858;7.232;2023-04-08T02:23:15;51818.22;;;-142.34;31.37
12951;BME280;6540;50.858;7.232;2023-04-08T02:25:43;51824.28;;;-142.34;30.84
12951;BME280;6540;50.858;7.232;2023-04-08T02:28:10;51804.13;;;-142.34;29.82
12951;BME280;6540;50.858;7.232;2023-04-08T02:30:49;51798.06;;;-142.34;29.45
12951;BME280;6540;50.858;7.232;2023-04-08T02:33:18;51826.31;;;-142.34;30.58
12951;BME280;6540;50.858;7.232;2023-04-08T02:35:47;51796.03;;;-142.34;30.12
12951;BME280;6540;50.858;7.232;2023-04-08T02:38:13;51802.09;;;-142.34;29.65
12951;BME280;6540;50.858;7.232;2023-04-08T02:40:38;51840.41;;;-142.34;29.63
12951;BME280;6540;50.858;7.232;2023-04-08T02:43:03;51800.06;;;-142.34;29.53
12951;BME280;6540;50.858;7.232;2023-04-08T02:45:31;51794.03;;;-142.34;29.53
12951;BME280;6540;50.858;7.232;2023-04-08T02:48:00;51806.13;;;-142.34;29.43
12951;BME280;6540;50.858;7.232;2023-04-08T02:50:26;51826.31;;;-142.34;29.65
12951;BME280;6540;50.858;7.232;2023-04-08T02:52:51;51812.19;;;-142.34;29.80
12951;BME280;6540;50.858;7.232;2023-04-08T02:55:17;51818.22;;;-142.34;29.45
12951;BME280;6540;50.858;7.232;2023-04-08T02:57:42;51810.16;;;-142.34;30.36
12951;BME280;6540;50.858;7.232;2023-04-08T03:00:08;51800.06;;;-142.34;29.76
12951;BME280;6540;50.858;7.232;2023-04-08T03:02:34;51818.22;;;-142.34;29.90
12951;BME280;6540;50.858;7.232;2023-04-08T03:05:00;51806.13;;;-142.34;30.05
12951;BME280;6540;50.858;7.232;2023-04-08T03:07:25;51818.22;;;-142.34;29.66
12951;BME280;6540;50.858;7.232;2023-04-08T03:09:51;51790.00;;;-142.34;30.07
12951;BME280;6540;50.858;7.232;2023-04-08T03:12:19;51814.19;;;-142.34;30.96
12951;BME280;6540;50.858;7.232;2023-04-08T03:14:44;51808.16;;;-142.34;30.12
12951;BME280;6540;50.858;7.232;2023-04-08T03:17:09;51798.06;;;-142.34;29.75
12951;BME280;6540;50.858;7.232;2023-04-08T03:19:35;51781.91;;;-142.34;29.71
12951;BME280;6540;50.858;7.232;2023-04-08T03:22:00;51808.16;;;-142.34;29.75
12951;BME280;6540;50.858;7.232;2023-04-08T03:24:25;51828.31;;;-142.34;29.48
12951;BME280;6540;50.858;7.232;2023-04-08T03:26:51;51767.81;;;-142.34;29.92
12951;BME280;6540;50.858;7.232;2023-04-08T03:29:16;51826.31;;;-142.34;30.86
12951;BME280;6540;50.858;7.232;2023-04-08T03:31:41;51830.34;;;-142.34;30.94
12951;BME280;6540;50.858;7.232;2023-04-08T03:34:07;51854.53;;;-142.34;31.45
12951;BME280;6540;50.858;7.232;2023-04-08T03:36:32;51822.25;;;-142.34;29.73
12951;BME280;6540;50.858;7.232;2023-04-08T03:38:57;51802.09;;;-142.34;29.59
12951;BME280;6540;50.858;7.232;2023-04-08T03:41:23;51822.25;;;-142.34;29.59
12951;BME280;6540;50.858;7.232;2023-04-08T03:43:48;51781.91;;;-142.34;29.97
12951;BME280;6540;50.858;7.232;2023-04-08T03:46:13;51858.56;;;-142.34;29.24
12951;BME280;6540;50.858;7.232;2023-04-08T03:48:39;51842.44;;;-142.34;29.63
12951;BME280;6540;50.858;7.232;2023-04-08T03:51:04;51812.19;;;-142.34;29.86
12951;BME280;6540;50.858;7.232;2023-04-08T03:53:29;51828.31;;;-142.34;29.65
12951;BME280;6540;50.858;7.232;2023-04-08T03:55:55;51806.13;;;-142.34;29.48
12951;BME280;6540;50.858;7.232;2023-04-08T03:58:21;51806.13;;;-142.34;29.49
12951;BME280;6540;50.858;7.232;2023-04-08T04:00:47;51812.19;;;-142.34;30.04
12951;BME280;6540;50.858;7.232;2023-04-08T04:03:12;51804.13;;;-142.34;29.42
12951;BME280;6540;50.858;7.232;2023-04-08T04:05:38;51818.22;;;-142.34;29.33
12951;BME280;6540;50.858;7.232;2023-04-08T04:08:04;51790.00;;;-142.34;29.00
12951;BME280;6540;50.858;7.232;2023-04-08T04:10:29;51790.00;;;-142.34;29.53
12951;BME280;6540;50.858;7.232;2023-04-08T04:12:55;51824.28;;;-142.34;29.65
12951;BME280;6540;50.858;7.232;2023-04-08T04:15:20;51798.06;;;-142.34;30.27
12951;BME280;6540;50.858;7.232;2023-04-08T04:17:49;51777.88;;;-142.34;29.81
12951;BME280;6540;50.858;7.232;2023-04-08T04:20:15;51806.13;;;-142.34;29.51
12951;BME280;6540;50.858;7.232;2023-04-08T04:22:44;51824.28;;;-142.34;29.34
12951;BME280;6540;50.858;7.232;2023-04-08T04:25:09;51794.03;;;-142.34;29.36
12951;BME280;6540;50.858;7.232;2023-04-08T04:27:35;51787.97;;;-142.34;29.16
12951;BME280;6540;50.858;7.232;2023-04-08T04:30:03;51796.03;;;-142.34;29.29
12951;BME280;6540;50.858;7.232;2023-04-08T04:32:29;51818.22;;;-142.34;29.24
12951;BME280;6540;50.858;7.232;2023-04-08T04:34:55;51830.34;;;-142.34;29.18
12951;BME280;6540;50.858;7.232;2023-04-08T04:37:20;51777.88;;;-142.34;29.09
12951;BME280;6540;50.858;7.232;2023-04-08T04:39:45;51820.25;;;-142.34;29.68
12951;BME280;6540;50.858;7.232;2023-04-08T04:42:11;51818.22;;;-142.34;29.70
12951;BME280;6540;50.858;7.232;2023-04-08T04:44:36;51854.53;;;-142.34;30.28
12951;BME280;6540;50.858;7.232;2023-04-08T04:47:02;51812.19;;;-142.34;29.71
12951;BME280;6540;50.858;7.232;2023-04-08T04:49:28;51806.13;;;-142.34;30.27
12951;BME280;6540;50.858;7.232;2023-04-08T04:51:53;51836.38;;;-142.34;30.43
12951;BME280;6540;50.858;7.232;2023-04-08T04:54:19;51828.31;;;-142.34;29.61
12951;BME280;6540;50.858;7.232;2023-04-08T04:56:44;51787.97;;;-142.34;28.86
12951;BME280;6540;50.858;7.232;2023-04-08T04:59:10;51802.09;;;-142.34;29.30
12951;BME280;6540;50.858;7.232;2023-04-08T05:01:35;51834.38;;;-142.34;29.43
12951;BME280;6540;50.858;7.232;2023-04-08T05:04:23;51822.25;;;-142.34;29.36
12951;BME280;6540;50.858;7.232;2023-04-08T05:06:58;51812.19;;;-142.34;29.34
12951;BME280;6540;50.858;7.232;2023-04-08T05:09:24;51781.91;;;-142.34;29.14
12951;BME280;6540;50.858;7.232;2023-04-08T05:11:50;51794.03;;;-142.34;30.17
12951;BME280;6540;50.858;7.232;2023-04-08T05:14:15;51828.31;;;-142.34;29.54
12951;BME280;6540;50.858;7.232;2023-04-08T05:16:40;51838.41;;;-142.34;29.70
12951;BME280;6540;50.858;7.232;2023-04-08T05:19:06;51836.38;;;-142.34;31.62
12951;BME280;6540;50.858;7.232;2023-04-08T05:21:31;51814.19;;;-142.34;30.70
12951;BME280;6540;50.858;7.232;2023-04-08T05:23:57;51842.44;;;-142.34;31.05
12951;BME280;6540;50.858;7.232;2023-04-08T05:26:22;51846.47;;;-142.34;30.17
12951;BME280;6540;50.858;7.232;2023-04-08T05:28:51;51818.22;;;-142.34;30.75
12951;BME280;6540;50.858;7.232;2023-04-08T05:31:17;51846.47;;;-142.34;31.36
12951;BME280;6540;50.858;7.232;2023-04-08T05:33:42;51854.53;;;-142.34;32.88
12951;BME280;6540;50.858;7.232;2023-04-08T05:36:07;51824.28;;;-142.34;34.29
12951;BME280;6540;50.858;7.232;2023-04-08T05:38:33;51842.44;;;-142.34;33.56
12951;BME280;6540;50.858;7.232;2023-04-08T05:40:58;51838.41;;;-142.34;34.38
12951;BME280;6540;50.858;7.232;2023-04-08T05:43:24;51874.72;;;-142.34;33.56
12951;BME280;6540;50.858;7.232;2023-04-08T05:45:49;51854.53;;;-142.34;33.43
12951;BME280;6540;50.858;7.232;2023-04-08T05:48:15;51874.72;;;-142.34;33.80
12951;BME280;6540;50.858;7.232;2023-04-08T05:50:40;51872.69;;;-142.34;31.93
12951;BME280;6540;50.858;7.232;2023-04-08T05:53:06;51842.44;;;-142.34;31.10
12951;BME280;6540;50.858;7.232;2023-04-08T05:55:31;51878.75;;;-142.34;31.74
12951;BME280;6540;50.858;7.232;2023-04-08T05:57:56;51850.50;;;-142.34;31.96
12951;BME280;6540;50.858;7.232;2023-04-08T06:00:22;51880.78;;;-142.34;30.99
12951;BME280;6540;50.858;7.232;2023-04-08T06:02:47;51886.81;;;-142.34;31.58
12951;BME280;6540;50.858;7.232;2023-04-08T06:05:13;51866.66;;;-142.34;30.96
12951;BME280;6540;50.858;7.232;2023-04-08T06:07:38;51836.38;;;-142.34;30.41
12951;BME280;6540;50.858;7.232;2023-04-08T06:10:03;51852.53;;;-142.34;30.17
12951;BME280;6540;50.858;7.232;2023-04-08T06:12:34;51820.25;;;-142.34;29.83
12951;BME280;6540;50.858;7.232;2023-04-08T06:14:59;51890.84;;;-142.34;30.65
12951;BME280;6540;50.858;7.232;2023-04-08T06:17:25;51896.91;;;-142.34;31.87
12951;BME280;6540;50.858;7.232;2023-04-08T06:19:50;51848.50;;;-142.34;32.43
12951;BME280;6540;50.858;7.232;2023-04-08T06:22:16;51846.47;;;-142.34;32.03
12951;BME280;6540;50.858;7.232;2023-04-08T06:24:41;51838.41;;;-142.34;32.69
12951;BME280;6540;50.858;7.232;2023-04-08T06:27:06;51886.81;;;-142.34;31.06
12951;BME280;6540;50.858;7.232;2023-04-08T06:29:31;51844.47;;;-142.34;31.21
12951;BME280;6540;50.858;7.232;2023-04-08T06:31:57;51852.53;;;-142.34;29.41
12951;BME280;6540;50.858;7.232;2023-04-08T06:34:23;51854.53;;;-142.34;31.57
12951;BME280;6540;50.858;7.232;2023-04-08T06:36:48;51866.66;;;-142.34;32.23
12951;BME280;6540;50.858;7.232;2023-04-08T06:39:14;51854.53;;;-142.34;30.32
12951;BME280;6540;50.858;7.232;2023-04-08T06:41:41;51838.41;;;-142.34;30.37
12951;BME280;6540;50.858;7.232;2023-04-08T06:44:06;51846.47;;;-142.34;31.34
12951;BME280;6540;50.858;7.232;2023-04-08T06:46:31;51898.94;;;-142.34;31.54
12951;BME280;6540;50.858;7.232;2023-04-08T06:48:57;51854.53;;;-142.34;33.03
12951;BME280;6540;50.858;7.232;2023-04-08T06:51:22;51860.59;;;-142.34;30.93
12951;BME280;6540;50.858;7.232;2023-04-08T06:53:47;51890.84;;;-142.34;30.70
12951;BME280;6540;50.858;7.232;2023-04-08T06:56:13;51842.44;;;-142.34;32.02
12951;BME280;6540;50.858;7.232;2023-04-08T06:58:38;51864.63;;;-142.34;31.31
12951;BME280;6540;50.858;7.232;2023-04-08T07:01:03;51882.78;;;-142.34;33.08
12951;BME280;6540;50.858;7.232;2023-04-08T07:03:29;51862.63;;;-142.34;32.25
12951;BME280;6540;50.858;7.232;2023-04-08T07:05:54;51860.59;;;-142.34;30.02
12951;BME280;6540;50.858;7.232;2023-04-08T07:08:20;51842.44;;;-142.34;31.93
12951;BME280;6540;50.858;7.232;2023-04-08T07:10:45;51838.41;;;-142.34;31.69
12951;BME280;6540;50.858;7.232;2023-04-08T07:13:10;51870.69;;;-142.34;31.60
12951;BME280;6540;50.858;7.232;2023-04-08T07:15:36;51872.69;;;-142.34;31.65
12951;BME280;6540;50.858;7.232;2023-04-08T07:18:01;51860.59;;;-142.34;32.62
12951;BME280;6540;50.858;7.232;2023-04-08T07:20:29;51838.41;;;-142.34;32.34
12951;BME280;6540;50.858;7.232;2023-04-08T07:22:54;51830.34;;;-142.34;32.23
12951;BME280;6540;50.858;7.232;2023-04-08T07:25:20;51854.53;;;-142.34;31.91
12951;BME280;6540;50.858;7.232;2023-04-08T07:27:45;51866.66;;;-142.34;32.58
12951;BME280;6540;50.858;7.232;2023-04-08T07:30:11;51854.53;;;-142.34;33.28
12951;BME280;6540;50.858;7.232;2023-04-08T07:32:36;51884.81;;;-142.34;31.43
12951;BME280;6540;50.858;7.232;2023-04-08T07:35:02;51915.06;;;-142.34;32.09
12951;BME280;6540;50.858;7.232;2023-04-08T07:37:28;51882.78;;;-142.34;31.29
12951;BME280;6540;50.858;7.232;2023-04-08T07:39:53;51894.88;;;-142.34;30.65
12951;BME280;6540;50.858;7.232;2023-04-08T07:42:19;51858.56;;;-142.34;31.18
12951;BME280;6540;50.858;7.232;2023-04-08T07:44:44;51882.78;;;-142.34;32.51
12951;BME280;6540;50.858;7.232;2023-04-08T07:47:10;51858.56;;;-142.34;32.16
12951;BME280;6540;50.858;7.232;2023-04-08T07:49:37;51860.59;;;-142.34;32.47
12951;BME280;6540;50.858;7.232;2023-04-08T07:52:03;51866.66;;;-142.34;33.27
12951;BME280;6540;50.858;7.232;2023-04-08T07:54:30;51902.97;;;-142.34;32.21
12951;BME280;6540;50.858;7.232;2023-04-08T07:56:55;51904.97;;;-142.34;32.96
12951;BME280;6540;50.858;7.232;2023-04-08T07:59:21;51886.81;;;-142.34;31.53
12951;BME280;6540;50.858;7.232;2023-04-08T08:01:46;51882.78;;;-142.34;30.75
12951;BME280;6540;50.858;7.232;2023-04-08T08:04:12;51842.44;;;-142.34;31.51
12951;BME280;6540;50.858;7.232;2023-04-08T08:06:37;51858.56;;;-142.34;31.57
12951;BME280;6540;50.858;7.232;2023-04-08T08:09:03;51886.81;;;-142.34;31.79
12951;BME280;6540;50.858;7.232;2023-04-08T08:11:29;51858.56;;;-142.34;32.96
12951;BME280;6540;50.858;7.232;2023-04-08T08:13:54;51848.50;;;-142.34;32.55
12951;BME280;6540;50.858;7.232;2023-04-08T08:16:20;51862.63;;;-142.34;32.72
12951;BME280;6540;50.858;7.232;2023-04-08T08:18:45;51864.63;;;-142.34;33.02
12951;BME280;6540;50.858;7.232;2023-04-08T08:21:10;51878.75;;;-142.34;32.99
12951;BME280;6540;50.858;7.232;2023-04-08T08:23:36;51850.50;;;-142.34;31.81
12951;BME280;6540;50.858;7.232;2023-04-08T08:26:05;51886.81;;;-142.34;32.45
12951;BME280;6540;50.858;7.232;2023-04-08T08:28:32;51892.88;;;-142.34;32.81
12951;BME280;6540;50.858;7.232;2023-04-08T08:30:58;51878.75;;;-142.34;32.59
12951;BME280;6540;50.858;7.232;2023-04-08T08:33:24;51864.63;;;-142.34;33.25
12951;BME280;6540;50.858;7.232;2023-04-08T08:35:50;51880.78;;;-142.34;33.15
12951;BME280;6540;50.858;7.232;2023-04-08T08:38:15;51846.47;;;-142.34;31.72
12951;BME280;6540;50.858;7.232;2023-04-08T08:40:42;51836.38;;;-142.34;30.71
12951;BME280;6540;50.858;7.232;2023-04-08T08:43:08;51874.72;;;-142.34;31.67
12951;BME280;6540;50.858;7.232;2023-04-08T08:45:38;51866.66;;;-142.34;31.71
12951;BME280;6540;50.858;7.232;2023-04-08T08:48:03;51828.31;;;-142.34;31.94
12951;BME280;6540;50.858;7.232;2023-04-08T08:50:30;51858.56;;;-142.34;31.13
12951;BME280;6540;50.858;7.232;2023-04-08T08:52:55;51880.78;;;-142.34;31.06
12951;BME280;6540;50.858;7.232;2023-04-08T08:55:21;51830.34;;;-142.34;31.81
12951;BME280;6540;50.858;7.232;2023-04-08T08:57:49;51852.53;;;-142.34;32.79
12951;BME280;6540;50.858;7.232;2023-04-08T09:00:15;51864.63;;;-142.34;30.99
12951;BME280;6540;50.858;7.232;2023-04-08T09:02:41;51810.16;;;-142.34;30.92
12951;BME280;6540;50.858;7.232;2023-04-08T09:05:07;51842.44;;;-142.34;32.06
12951;BME280;6540;50.858;7.232;2023-04-08T09:07:37;51846.47;;;-142.34;30.53
12951;BME280;6540;50.858;7.232;2023-04-08T09:10:05;51852.53;;;-142.34;32.93
12951;BME280;6540;50.858;7.232;2023-04-08T09:12:30;51862.63;;;-142.34;30.86
12951;BME280;6540;50.858;7.232;2023-04-08T09:15:06;51860.59;;;-142.34;30.74
12951;BME280;6540;50.858;7.232;2023-04-08T09:17:34;51846.47;;;-142.34;31.19
12951;BME280;6540;50.858;7.232;2023-04-08T09:20:05;51836.38;;;-142.34;30.13
12951;BME280;6540;50.858;7.232;2023-04-08T09:25:29;51842.44;;;-142.34;30.12
12951;BME280;6540;50.858;7.232;2023-04-08T09:27:55;51822.25;;;-142.34;30.50
12951;BME280;6540;50.858;7.232;2023-04-08T09:30:22;51852.53;;;-142.34;30.10
12951;BME280;6540;50.858;7.232;2023-04-08T09:32:52;51838.41;;;-142.34;30.87
12951;BME280;6540;50.858;7.232;2023-04-08T09:35:18;51822.25;;;-142.34;29.92
12951;BME280;6540;50.858;7.232;2023-04-08T09:37:44;51814.19;;;-142.34;29.48
12951;BME280;6540;50.858;7.232;2023-04-08T09:40:11;51794.03;;;-142.34;29.66
12951;BME280;6540;50.858;7.232;2023-04-08T09:42:39;51830.34;;;-142.34;28.90
12951;BME280;6540;50.858;7.232;2023-04-08T09:45:06;51781.91;;;-142.34;29.87
12951;BME280;6540;50.858;7.232;2023-04-08T09:47:39;51832.34;;;-142.34;29.52
12951;BME280;6540;50.858;7.232;2023-04-08T09:50:07;51757.72;;;-142.34;28.73
12951;BME280;6540;50.858;7.232;2023-04-08T09:52:42;51747.63;;;-142.34;27.80
12951;BME280;6540;50.858;7.232;2023-04-08T09:55:10;51733.50;;;-142.34;29.27
12951;BME280;6540;50.858;7.232;2023-04-08T09:57:40;51777.88;;;-142.34;28.56
12951;BME280;6540;50.858;7.232;2023-04-08T10:00:14;51790.00;;;-142.34;28.54
12951;BME280;6540;50.858;7.232;2023-04-08T10:05:24;51749.66;;;-142.34;27.75
12951;BME280;6540;50.858;7.232;2023-04-08T10:07:50;51785.94;;;-142.34;27.78
12951;BME280;6540;50.858;7.232;2023-04-08T10:10:16;51790.00;;;-142.34;28.66
12951;BME280;6540;50.858;7.232;2023-04-08T10:12:42;51794.03;;;-142.34;29.26
12951;BME280;6540;50.858;7.232;2023-04-08T10:20:47;51757.72;;;-142.34;28.46
12951;BME280;6540;50.858;7.232;2023-04-08T10:23:15;51775.88;;;-142.34;28.85
12951;BME280;6540;50.858;7.232;2023-04-08T10:26:28;51810.16;;;-142.34;29.59
12951;BME280;6540;50.858;7.232;2023-04-08T10:29:31;51802.09;;;-142.34;28.59
12951;BME280;6540;50.858;7.232;2023-04-08T10:31:57;51775.88;;;-142.34;28.41
12951;BME280;6540;50.858;7.232;2023-04-08T10:34:23;51794.03;;;-142.34;28.76
12951;BME280;6540;50.858;7.232;2023-04-08T10:36:51;51773.84;;;-142.34;28.94
12951;BME280;6540;50.858;7.232;2023-04-08T10:39:20;51792.00;;;-142.34;28.61
12951;BME280;6540;50.858;7.232;2023-04-08T10:41:50;51769.81;;;-142.34;27.63
12951;BME280;6540;50.858;7.232;2023-04-08T10:44:24;51721.41;;;-142.34;27.05
12951;BME280;6540;50.858;7.232;2023-04-08T10:46:52;51741.56;;;-142.34;28.57
12951;BME280;6540;50.858;7.232;2023-04-08T10:49:18;51749.66;;;-142.34;28.02
12951;BME280;6540;50.858;7.232;2023-04-08T10:51:44;51753.69;;;-142.34;27.35
12951;BME280;6540;50.858;7.232;2023-04-08T10:54:12;51745.59;;;-142.34;28.48
12951;BME280;6540;50.858;7.232;2023-04-08T10:56:50;51747.63;;;-142.34;27.09
12951;BME280;6540;50.858;7.232;2023-04-08T10:59:26;51745.59;;;-142.34;27.30
12951;BME280;6540;50.858;7.232;2023-04-08T11:01:54;51785.94;;;-142.34;28.24
12951;BME280;6540;50.858;7.232;2023-04-08T11:04:20;51761.75;;;-142.34;27.36
12951;BME280;6540;50.858;7.232;2023-04-08T11:06:48;51743.59;;;-142.34;27.23
12951;BME280;6540;50.858;7.232;2023-04-08T11:09:16;51725.44;;;-142.34;26.99
12951;BME280;6540;50.858;7.232;2023-04-08T11:12:03;51729.47;;;-142.34;26.95
12951;BME280;6540;50.858;7.232;2023-04-08T11:14:29;51719.38;;;-142.34;26.94
12951;BME280;6540;50.858;7.232;2023-04-08T11:16:56;51737.53;;;-142.34;27.76
12951;BME280;6540;50.858;7.232;2023-04-08T11:19:21;51790.00;;;-142.34;28.39
12951;BME280;6540;50.858;7.232;2023-04-08T11:21:47;51802.09;;;-142.34;27.55
12951;BME280;6540;50.858;7.232;2023-04-08T11:24:12;51729.47;;;-142.34;27.21
12951;BME280;6540;50.858;7.232;2023-04-08T11:26:39;51767.81;;;-142.34;28.21
12951;BME280;6540;50.858;7.232;2023-04-08T11:29:05;51761.75;;;-142.34;27.29
12951;BME280;6540;50.858;7.232;2023-04-08T11:31:31;51765.78;;;-142.34;28.73
12951;BME280;6540;50.858;7.232;2023-04-08T11:33:56;51796.03;;;-142.34;27.76
12951;BME280;6540;50.858;7.232;2023-04-08T11:36:22;51806.13;;;-142.34;28.00
12951;BME280;6540;50.858;7.232;2023-04-08T11:38:47;51763.75;;;-142.34;27.54
12951;BME280;6540;50.858;7.232;2023-04-08T11:41:13;51749.66;;;-142.34;27.46
12951;BME280;6540;50.858;7.232;2023-04-08T11:43:50;51729.47;;;-142.34;26.72
12951;BME280;6540;50.858;7.232;2023-04-08T11:46:15;51765.78;;;-142.34;27.71
12951;BME280;6540;50.858;7.232;2023-04-08T11:48:56;51794.03;;;-142.34;26.90
12951;BME280;6540;50.858;7.232;2023-04-08T11:51:21;51751.66;;;-142.34;27.00
12951;BME280;6540;50.858;7.232;2023-04-08T11:53:46;51783.94;;;-142.34;27.22
12951;BME280;6540;50.858;7.232;2023-04-08T11:56:20;51769.81;;;-142.34;27.13
12951;BME280;6540;50.858;7.232;2023-04-08T11:58:46;51753.69;;;-142.34;27.80
12951;BME280;6540;50.858;7.232;2023-04-08T12:01:12;51753.69;;;-142.34;27.62
12951;BME280;6540;50.858;7.232;2023-04-08T12:03:38;51773.84;;;-142.34;28.44
12951;BME280;6540;50.858;7.232;2023-04-08T12:06:04;51792.00;;;-142.34;27.12
12951;BME280;6540;50.858;7.232;2023-04-08T12:08:33;51763.75;;;-142.34;27.09
12951;BME280;6540;50.858;7.232;2023-04-08T12:10:59;51775.88;;;-142.34;28.02
12951;BME280;6540;50.858;7.232;2023-04-08T12:13:24;51781.91;;;-142.34;27.34
12951;BME280;6540;50.858;7.232;2023-04-08T12:15:50;51798.06;;;-142.34;27.83
12951;BME280;6540;50.858;7.232;2023-04-08T12:18:15;51810.16;;;-142.34;27.79
12951;BME280;6540;50.858;7.232;2023-04-08T12:20:40;51796.03;;;-142.34;27.46
12951;BME280;6540;50.858;7.232;2023-04-08T12:23:06;51798.06;;;-142.34;26.12
12951;BME280;6540;50.858;7.232;2023-04-08T12:25:32;51794.03;;;-142.34;26.64
12951;BME280;6540;50.858;7.232;2023-04-08T12:27:57;51822.25;;;-142.34;27.52
12951;BME280;6540;50.858;7.232;2023-04-08T12:30:22;51798.06;;;-142.34;26.45
12951;BME280;6540;50.858;7.232;2023-04-08T12:32:48;51810.16;;;-142.34;27.17
12951;BME280;6540;50.858;7.232;2023-04-08T12:35:13;51802.09;;;-142.34;27.07
12951;BME280;6540;50.858;7.232;2023-04-08T12:37:39;51822.25;;;-142.34;26.71
12951;BME280;6540;50.858;7.232;2023-04-08T12:40:05;51783.94;;;-142.34;26.01
12951;BME280;6540;50.858;7.232;2023-04-08T12:42:30;51771.84;;;-142.34;25.74
12951;BME280;6540;50.858;7.232;2023-04-08T12:44:55;51785.94;;;-142.34;25.61
12951;BME280;6540;50.858;7.232;2023-04-08T12:47:21;51779.91;;;-142.34;25.73
12951;BME280;6540;50.858;7.232;2023-04-08T12:49:47;51777.88;;;-142.34;26.15
12951;BME280;6540;50.858;7.232;2023-04-08T12:52:13;51785.94;;;-142.34;27.69
12951;BME280;6540;50.858;7.232;2023-04-08T12:54:39;51802.09;;;-142.34;26.76
12951;BME280;6540;50.858;7.232;2023-04-08T12:57:04;51814.19;;;-142.34;26.51
12951;BME280;6540;50.858;7.232;2023-04-08T12:59:30;51798.06;;;-142.34;25.95
12951;BME280;6540;50.858;7.232;2023-04-08T13:01:57;51798.06;;;-142.34;25.24
12951;BME280;6540;50.858;7.232;2023-04-08T13:04:23;51775.88;;;-142.34;25.00